createdAt,value
2018-03-24T00:00:20.163Z,99.90
2018-03-24T00:05:03.541Z,99.90
2018-03-24T00:09:47.164Z,99.90
2018-03-24T00:14:30.487Z,99.90
2018-03-24T00:19:13.845Z,99.90
2018-03-24T00:23:57.338Z,99.90
2018-03-24T00:28:41.471Z,99.90
2018-03-24T00:33:25.047Z,99.90
2018-03-24T00:38:09.149Z,99.90
2018-03-24T00:42:52.531Z,99.90
2018-03-24T00:47:36.674Z,99.90
2018-03-24T00:52:20.063Z,99.90
2018-03-24T00:57:04.210Z,99.90
2018-03-24T01:01:48.288Z,99.90
2018-03-24T01:06:31.742Z,99.90
2018-03-24T01:11:15.106Z,99.90
2018-03-24T01:15:58.423Z,99.90
2018-03-24T01:20:41.816Z,99.90
2018-03-24T01:25:25.175Z,99.90
2018-03-24T01:30:08.556Z,99.90
2018-03-24T01:34:51.943Z,99.90
2018-03-24T01:39:36.016Z,99.90
2018-03-24T01:44:19.380Z,99.90
2018-03-24T01:49:03.512Z,99.90
2018-03-24T01:53:52.929Z,99.90
2018-03-24T01:58:36.639Z,99.90
2018-03-24T02:03:20.789Z,99.90
2018-03-24T02:08:04.134Z,99.90
2018-03-24T02:12:48.408Z,99.90
2018-03-24T02:17:32.562Z,99.90
2018-03-24T02:22:16.739Z,99.90
2018-03-24T02:27:00.320Z,99.90
2018-03-24T02:31:43.676Z,99.90
2018-03-24T02:36:27.297Z,99.90
2018-03-24T02:41:10.645Z,99.90
2018-03-24T02:45:54.093Z,99.90
2018-03-24T02:50:37.449Z,99.90
2018-03-24T02:55:20.850Z,99.90
2018-03-24T03:00:04.367Z,99.90
2018-03-24T03:04:48.489Z,99.90
2018-03-24T03:09:31.914Z,99.90
2018-03-24T03:14:15.355Z,99.90
2018-03-24T03:18:58.722Z,99.90
2018-03-24T03:23:42.082Z,99.90
2018-03-24T03:28:26.318Z,99.90
2018-03-24T03:33:09.728Z,99.90
2018-03-24T03:37:53.143Z,99.90
2018-03-24T03:42:37.359Z,99.90
2018-03-24T03:47:20.769Z,99.90
2018-03-24T03:52:04.082Z,99.90
2018-03-24T03:56:47.415Z,99.90
2018-03-24T04:01:31.803Z,99.90
2018-03-24T04:06:16.103Z,99.90
2018-03-24T04:10:59.403Z,99.90
2018-03-24T04:15:42.785Z,99.90
2018-03-24T04:20:26.128Z,99.90
2018-03-24T04:25:09.455Z,99.90
2018-03-24T04:29:53.109Z,99.90
2018-03-24T04:34:36.490Z,99.90
2018-03-24T04:39:20.599Z,99.90
2018-03-24T04:44:03.948Z,99.90
2018-03-24T04:48:47.311Z,99.90
2018-03-24T04:53:30.607Z,99.90
2018-03-24T04:58:13.957Z,99.90
2018-03-24T05:02:57.309Z,99.90
2018-03-24T05:07:40.732Z,99.90
2018-03-24T05:12:24.084Z,99.90
2018-03-24T05:17:07.432Z,99.90
2018-03-24T05:21:50.809Z,99.90
2018-03-24T05:26:34.129Z,99.90
2018-03-24T05:31:17.522Z,99.90
2018-03-24T05:36:00.917Z,99.90
2018-03-24T05:40:44.346Z,99.90
2018-03-24T05:45:27.734Z,99.90
2018-03-24T05:50:11.843Z,99.90
2018-03-24T05:54:55.159Z,99.90
2018-03-24T05:59:38.494Z,99.90
2018-03-24T06:04:22.756Z,99.90
2018-03-24T06:09:06.943Z,99.90
2018-03-24T06:13:50.513Z,99.90
2018-03-24T06:18:33.850Z,99.90
2018-03-24T06:23:17.287Z,99.90
2018-03-24T06:28:00.727Z,99.90
2018-03-24T06:32:44.135Z,99.90
2018-03-24T06:37:27.509Z,99.90
2018-03-24T06:42:10.844Z,99.90
2018-03-24T06:46:54.314Z,99.90
2018-03-24T06:51:38.479Z,99.90
2018-03-24T06:56:23.008Z,99.90
2018-03-24T07:01:06.339Z,99.90
2018-03-24T07:05:49.679Z,99.90
2018-03-24T07:10:33.096Z,99.90
2018-03-24T07:15:16.492Z,99.90
2018-03-24T07:19:59.866Z,99.90
2018-03-24T07:24:43.956Z,99.90
2018-03-24T07:29:28.108Z,99.90
2018-03-24T07:34:11.614Z,99.90
2018-03-24T07:38:55.334Z,99.90
2018-03-24T07:43:38.646Z,99.90
2018-03-24T07:48:22.048Z,99.90
2018-03-24T07:53:06.184Z,99.90
2018-03-24T07:57:49.549Z,99.90
2018-03-24T08:02:33.179Z,99.90
2018-03-24T08:07:16.510Z,99.90
2018-03-24T08:12:00.131Z,99.90
2018-03-24T08:16:43.511Z,99.90
2018-03-24T08:21:27.628Z,99.90
2018-03-24T08:26:10.970Z,99.90
2018-03-24T08:30:54.415Z,99.90
2018-03-24T08:35:38.174Z,99.90
2018-03-24T08:40:21.478Z,98.40
2018-03-24T08:45:04.859Z,98.30
2018-03-24T08:49:48.286Z,97.40
2018-03-24T08:54:32.103Z,94.30
2018-03-24T08:59:20.171Z,95.30
2018-03-24T09:04:03.684Z,94.90
2018-03-24T09:08:47.068Z,94.20
2018-03-24T09:13:30.423Z,94.20
2018-03-24T09:18:13.760Z,93.10
2018-03-24T09:22:57.104Z,91.70
2018-03-24T09:27:41.219Z,89.70
2018-03-24T09:32:24.679Z,89.70
2018-03-24T09:37:08.337Z,90.00
2018-03-24T09:41:51.715Z,87.00
2018-03-24T09:46:35.080Z,87.40
2018-03-24T09:51:18.459Z,85.10
2018-03-24T09:56:01.832Z,83.70
2018-03-24T10:00:45.152Z,84.20
2018-03-24T10:05:28.733Z,86.40
2018-03-24T10:10:16.922Z,87.60
2018-03-24T10:15:00.306Z,89.80
2018-03-24T10:19:46.979Z,70.90
2018-03-24T10:24:33.447Z,75.00
2018-03-24T10:29:17.784Z,71.40
2018-03-24T10:34:01.919Z,71.10
2018-03-24T10:38:45.216Z,66.20
2018-03-24T10:43:34.095Z,62.20
2018-03-24T10:48:18.272Z,72.90
2018-03-24T10:53:02.634Z,70.20
2018-03-24T10:57:46.722Z,65.10
2018-03-24T11:02:30.078Z,65.10
2018-03-24T11:07:13.546Z,58.70
2018-03-24T11:11:56.948Z,61.40
2018-03-24T11:16:40.853Z,63.20
2018-03-24T11:21:24.987Z,57.90
2018-03-24T11:26:08.337Z,57.90
2018-03-24T11:30:52.591Z,65.00
2018-03-24T11:35:36.026Z,63.20
2018-03-24T11:40:19.351Z,60.10
2018-03-24T11:45:02.725Z,61.80
2018-03-24T11:49:46.056Z,61.20
2018-03-24T11:54:41.216Z,59.60
2018-03-24T11:59:26.524Z,62.00
2018-03-24T12:04:09.867Z,61.90
2018-03-24T12:08:56.956Z,62.90
2018-03-24T12:13:41.319Z,62.70
2018-03-24T12:18:24.720Z,63.70
2018-03-24T12:23:08.116Z,63.70
2018-03-24T12:27:51.502Z,62.40
2018-03-24T12:32:34.850Z,68.30
2018-03-24T12:37:18.201Z,70.00
2018-03-24T12:42:02.325Z,67.20
2018-03-24T12:46:45.714Z,67.20
2018-03-24T12:56:17.825Z,69.70
2018-03-24T13:01:01.184Z,69.60
2018-03-24T13:05:45.779Z,74.40
2018-03-24T13:10:29.677Z,74.40
2018-03-24T13:15:13.997Z,73.80
2018-03-24T13:19:57.881Z,70.40
2018-03-24T13:24:42.038Z,67.40
2018-03-24T13:29:26.903Z,70.40
2018-03-24T13:34:10.237Z,70.50
2018-03-24T13:38:53.684Z,71.60
2018-03-24T13:43:37.040Z,71.20
2018-03-24T13:48:20.803Z,75.50
2018-03-24T13:53:04.113Z,78.40
2018-03-24T13:57:47.455Z,79.20
2018-03-24T14:02:30.822Z,80.50
2018-03-24T14:07:14.160Z,82.60
2018-03-24T14:11:57.506Z,84.70
2018-03-24T14:16:40.910Z,82.90
2018-03-24T14:21:25.033Z,86.30
2018-03-24T14:26:09.151Z,86.20
2018-03-24T14:30:54.292Z,86.20
2018-03-24T14:35:37.890Z,83.20
2018-03-24T14:40:21.344Z,79.50
2018-03-24T14:45:04.911Z,79.30
2018-03-24T14:49:49.065Z,76.60
2018-03-24T14:54:32.488Z,76.50
2018-03-24T14:59:15.942Z,77.40
2018-03-24T15:03:59.518Z,79.50
2018-03-24T15:08:42.935Z,78.00
2018-03-24T15:13:26.325Z,77.60
2018-03-24T15:18:09.670Z,75.50
2018-03-24T15:22:53.023Z,73.10
2018-03-24T15:27:36.487Z,69.40
2018-03-24T15:32:31.691Z,70.00
2018-03-24T15:37:15.075Z,72.20
2018-03-24T15:41:59.223Z,70.20
2018-03-24T15:46:43.390Z,69.40
2018-03-24T15:51:27.635Z,68.70
2018-03-24T15:56:11.723Z,72.10
2018-03-24T16:00:55.398Z,71.80
2018-03-24T16:05:38.697Z,73.40
2018-03-24T16:10:22.902Z,75.90
2018-03-24T16:15:06.309Z,75.80
2018-03-24T16:19:49.712Z,79.10
2018-03-24T16:24:34.145Z,79.60
2018-03-24T16:29:17.610Z,79.60
2018-03-24T16:34:01.729Z,81.20
2018-03-24T16:38:45.143Z,81.10
2018-03-24T16:43:29.585Z,83.00
2018-03-24T16:48:13.025Z,83.00
2018-03-24T16:52:56.375Z,83.70
2018-03-24T16:57:39.802Z,86.40
2018-03-24T17:02:23.439Z,88.60
2018-03-24T17:07:06.855Z,90.10
2018-03-24T17:11:50.328Z,91.30
2018-03-24T17:16:33.648Z,92.30
2018-03-24T17:21:17.115Z,93.60
2018-03-24T17:26:00.614Z,94.50
2018-03-24T17:30:44.046Z,95.40
2018-03-24T17:35:27.457Z,95.80
2018-03-24T17:40:10.983Z,96.70
2018-03-24T17:44:54.657Z,97.70
2018-03-24T17:49:39.522Z,98.10
2018-03-24T17:54:24.019Z,99.50
2018-03-24T17:59:09.276Z,99.80
2018-03-24T18:03:59.490Z,99.80
2018-03-24T18:08:43.614Z,99.70
2018-03-24T18:13:27.855Z,99.60
2018-03-24T18:18:12.404Z,99.90
2018-03-24T18:22:56.805Z,99.90
2018-03-24T18:27:49.376Z,99.90
2018-03-24T18:32:33.406Z,99.90
2018-03-24T18:37:17.230Z,99.90
2018-03-24T18:42:01.881Z,99.90
2018-03-24T18:46:45.503Z,99.90
2018-03-24T18:51:29.082Z,99.90
2018-03-24T18:56:13.182Z,99.90
2018-03-24T19:00:57.161Z,99.90
2018-03-24T19:05:41.503Z,99.90
2018-03-24T19:10:26.702Z,99.90
2018-03-24T19:15:10.682Z,99.90
2018-03-24T19:19:56.552Z,99.90
2018-03-24T19:24:43.751Z,99.90
2018-03-24T19:29:28.170Z,99.90
2018-03-24T19:34:27.644Z,99.90
2018-03-24T19:39:13.525Z,99.90
2018-03-24T19:43:57.322Z,99.90
2018-03-24T19:48:44.447Z,99.90
2018-03-24T19:53:29.263Z,99.90
2018-03-24T19:58:14.035Z,99.90
2018-03-24T20:02:59.418Z,99.90
2018-03-24T20:07:44.112Z,99.90
2018-03-24T20:12:28.489Z,99.90
2018-03-24T20:17:12.929Z,99.90
2018-03-24T20:21:56.471Z,99.90
2018-03-24T20:26:39.873Z,99.90
2018-03-24T20:31:23.337Z,99.90
2018-03-24T20:36:09.342Z,99.90
2018-03-24T20:40:52.667Z,99.90
2018-03-24T20:45:36.277Z,99.90
2018-03-24T20:50:19.647Z,99.90
2018-03-24T20:55:03.412Z,99.90
2018-03-24T20:59:47.670Z,99.90
2018-03-24T21:04:31.080Z,99.90
2018-03-24T21:09:14.529Z,99.90
2018-03-24T21:13:58.799Z,99.90
2018-03-24T21:18:42.102Z,99.90
2018-03-24T21:23:26.221Z,99.90
2018-03-24T21:28:09.578Z,99.90
2018-03-24T21:32:52.944Z,99.90
2018-03-24T21:37:36.556Z,99.90
2018-03-24T21:42:19.894Z,99.90
2018-03-24T21:47:03.269Z,99.90
2018-03-24T21:51:47.354Z,99.90
2018-03-24T21:56:30.993Z,99.90
2018-03-24T22:01:14.324Z,99.90
2018-03-24T22:05:57.668Z,99.90
2018-03-24T22:10:41.011Z,99.90
2018-03-24T22:15:24.416Z,99.90
2018-03-24T22:20:08.045Z,99.90
2018-03-24T22:24:51.384Z,99.90
2018-03-24T22:29:34.705Z,99.90
2018-03-24T22:34:18.048Z,99.90
2018-03-24T22:39:01.468Z,99.90
2018-03-24T22:43:44.790Z,99.90
2018-03-24T22:48:28.942Z,99.90
2018-03-24T22:53:12.311Z,99.90
2018-03-24T22:57:55.886Z,99.90
2018-03-24T23:02:39.216Z,99.90
2018-03-24T23:07:22.582Z,99.90
2018-03-24T23:12:06.026Z,99.90
2018-03-24T23:16:49.365Z,99.90
2018-03-24T23:21:32.951Z,99.90
2018-03-24T23:26:16.340Z,99.90
2018-03-24T23:30:59.701Z,99.90
2018-03-24T23:35:43.052Z,99.90
2018-03-24T23:40:26.410Z,99.90
2018-03-24T23:45:10.474Z,99.90
